• Join FlightAware (Why Join?)
  • Login
  • US Flag 
06:13AM EDT


 

Airport Tracker/Info


-or-


 

Live Flight TrackerFlight Track Log ✈ JZA7983 ✈ 13-May-2013 ✈ CYYZ - KCVG

Flight Track Log - Related Links

Times and Time Zones

All times are in EDT time to prevent confusion due to time zone crossing. See the JZA7983 flight status page for this flight to view local times or setup timezone preferences in your user account.

Time Position Orientation Groundspeed Altitude Reporting Facility
EDT Latitude Longitude Course Direction KTS MPH feet Rate Location/Type
06:58PM 43.6667 -79.5833 216° Southwest 10 12 500  Level Toronto Center
07:02PM 43.6333 -79.6167 216° Southwest 160 184 2,400 540 Climbing Toronto Center
07:03PM 43.6000 -79.6500 216° Southwest 200 230 3,000 780 Climbing Toronto Center
07:04PM 43.5500 -79.7000 216° Southwest 210 242 4,000 1,920 Climbing Toronto Center
07:05PM 43.5000 -79.7667 224° Southwest 220 253 6,900 2,760 Climbing Toronto Center
07:06PM 43.4500 -79.8333 224° Southwest 260 299 9,600 1,980 Climbing Toronto Center
07:07PM 43.4000 -79.9333 235° Southwest 300 345 10,900 1,500 Climbing Toronto Center
07:08PM 43.3333 -80.0167 222° Southwest 330 380 12,600 1,680 Climbing Toronto Center
07:09PM 43.2500 -80.1167 221° Southwest 350 403 14,300 1,440 Climbing Toronto Center
07:10PM 43.1833 -80.2000 222° Southwest 360 414 15,500 1,200 Climbing Toronto Center
07:11PM 43.1167 -80.3000 228° Southwest 370 426 16,800 1,140 Climbing Toronto Center
07:12PM 43.0333 -80.4167 226° Southwest 380 437 17,800 960 Climbing Toronto Center
07:13PM 42.9667 -80.5167 228° Southwest 390 449 18,800 900 Climbing Toronto Center
07:14PM 42.8833 -80.6167 221° Southwest 390 449 19,700 840 Climbing Toronto Center
07:15PM 42.8167 -80.7167 228° Southwest 400 460 20,500 600 Climbing Toronto Center
07:16PM 42.7167 -80.8333 221° Southwest 400 460 21,000 420 Climbing Toronto Center
07:16PM 42.6661 -80.9306 235° Southwest 402 463 21,300 240 Climbing Cleveland Center
07:17PM 42.5678 -81.0231 215° Southwest 427 491 21,500 480 Climbing Cleveland Center
07:18PM 42.4672 -81.1208 216° Southwest 441 507 22,300 660 Climbing Cleveland Center
07:19PM 42.3689 -81.2128 215° Southwest 441 507 22,900 600 Climbing Cleveland Center
07:20PM 42.2703 -81.3100 216° Southwest 441 507 23,600 660 Climbing Cleveland Center
07:21PM 42.1697 -81.4039 215° Southwest 433 498 24,300 720 Climbing Cleveland Center
07:22PM 42.0731 -81.4922 214° Southwest 433 498 25,100 780 Climbing Cleveland Center
07:23PM 41.9681 -81.5942 216° Southwest 447 514 25,900 900 Climbing Cleveland Center
07:24PM 41.8650 -81.6928 215° Southwest 466 536 26,900 960 Climbing Cleveland Center
07:25PM 41.7514 -81.7967 214° Southwest 482 555 27,900 1,200 Climbing Cleveland Center
07:26PM 41.6439 -81.9003 216° Southwest 487 560 29,400 1,020 Climbing Cleveland Center
07:27PM 41.5428 -81.9897 214° Southwest 487 560 30,000 660 Climbing Cleveland Center
07:28PM 41.4183 -82.1061 215° Southwest 498 573 30,800 900 Climbing Cleveland Center
07:29PM 41.2942 -82.1861 206° Southwest 498 573 31,900 600 Climbing Cleveland Center
07:30PM 41.1517 -82.2378 195° South 511 588 32,000  Climbing Cleveland Center
07:31PM 41.0239 -82.2814 194° South 535 616 32,000  Level Cleveland Center
07:32PM 40.8708 -82.3350 195° South 553 636 32,000  Level Cleveland Center
07:34PM 40.5953 -82.4331 195° South 571 657 32,000 -180 Level Indianapolis Center
07:35PM 40.4428 -82.4908 196° South 567 652 31,600 -1,380 Descending Indianapolis Center
07:36PM 40.2981 -82.6267 216° Southwest 538 619 29,200 -1,740 Descending Indianapolis Center
07:37PM 40.2028 -82.7439 223° Southwest 514 592 28,100 -1,020 Descending Indianapolis Center
07:38PM 40.0975 -82.8719 223° Southwest 513 590 27,100 -1,020 Descending Indianapolis Center
07:39PM 39.9922 -82.9986 223° Southwest 509 586 26,100 -1,080 Descending Indianapolis Center
07:40PM 39.9075 -83.1711 237° Southwest 478 550 24,900 -1,080 Descending Indianapolis Center
07:42PM 39.8433 -83.3231 241° Southwest 473 544 23,900 -960 Descending Indianapolis Center
07:43PM 39.7872 -83.4508 240° Southwest 469 540 23,000 -1,620 Descending Indianapolis Center
07:44PM 39.7239 -83.5992 241° Southwest 454 522 20,600 -2,640 Descending Indianapolis Center
07:45PM 39.6572 -83.7575 241° Southwest 427 491 17,600 -2,880 Descending Indianapolis Center
07:46PM 39.6022 -83.8842 241° Southwest 402 463 14,800 -2,700 Descending Indianapolis Center
07:47PM 39.5319 -83.9939 230° Southwest 392 451 12,100 -1,920 Descending Indianapolis Center
07:48PM 39.4589 -84.0956 227° Southwest 384 442 10,900 -540 Descending Indianapolis Center
07:49PM 39.3869 -84.1956 227° Southwest 378 435 11,000  Climbing Indianapolis Center
07:50PM 39.3125 -84.2961 226° Southwest 382 440 11,000 -180 Level Indianapolis Center
07:51PM 39.2400 -84.3961 227° Southwest 380 437 10,700 -660 Descending Indianapolis Center
07:52PM 39.1794 -84.4783 226° Southwest 328 377 9,700 -840 Descending Indianapolis Center
07:53PM 39.1089 -84.5289 209° Southwest 309 356 9,000 -1,140 Descending Indianapolis Center
07:53PM 39.0500 -84.5333 183° South 287 330 7,900 -2,220 Descending Cincinnati TRACON
07:54PM 38.9833 -84.5333 180° South 272 313 5,500 -1,980 Descending Cincinnati TRACON
07:55PM 38.9000 -84.5333 180° South 253 291 4,000 -780 Descending Cincinnati TRACON
07:56PM 38.8500 -84.5833 218° Southwest 205 236 4,000  Level Cincinnati TRACON
07:57PM 38.8667 -84.6500 288° West 194 223 4,000 -300 Level Cincinnati TRACON
07:58PM 38.9000 -84.6667 339° North 173 199 3,400 -780 Descending Cincinnati TRACON
07:59PM 38.9500 -84.6667 360° North 178 205 2,500 -900 Descending Cincinnati TRACON
08:00PM 39.0000 -84.6667 360° North 155 178 1,700 -900 Descending Cincinnati TRACON